createdAt,value
2018-06-08T00:00:53.838Z,92.50
2018-06-08T00:03:22.393Z,92.50
2018-06-08T00:05:50.959Z,92.60
2018-06-08T00:08:19.482Z,92.50
2018-06-08T00:10:48.673Z,92.70
2018-06-08T00:13:17.225Z,92.60
2018-06-08T00:18:15.916Z,92.70
2018-06-08T00:20:44.530Z,92.80
2018-06-08T00:23:14.582Z,92.90
2018-06-08T00:25:44.131Z,92.80
2018-06-08T00:28:12.829Z,92.80
2018-06-08T00:30:41.434Z,92.50
2018-06-08T00:33:10.166Z,92.50
2018-06-08T00:35:38.721Z,92.30
2018-06-08T00:38:07.375Z,91.80
2018-06-08T00:40:36.839Z,91.60
2018-06-08T00:43:05.574Z,91.60
2018-06-08T00:45:34.140Z,91.30
2018-06-08T00:48:02.765Z,91.30
2018-06-08T00:50:31.350Z,91.20
2018-06-08T00:52:59.930Z,91.30
2018-06-08T00:55:28.545Z,91.30
2018-06-08T00:57:57.135Z,91.40
2018-06-08T01:00:25.674Z,91.40
2018-06-08T01:02:54.234Z,91.30
2018-06-08T01:05:22.758Z,91.20
2018-06-08T01:07:51.342Z,91.20
2018-06-08T01:10:19.906Z,91.10
2018-06-08T01:12:48.452Z,91.10
2018-06-08T01:15:17.014Z,91.00
2018-06-08T01:17:45.566Z,91.10
2018-06-08T01:20:14.114Z,91.10
2018-06-08T01:22:42.669Z,91.00
2018-06-08T01:25:11.255Z,90.80
2018-06-08T01:27:39.847Z,90.80
2018-06-08T01:30:08.390Z,90.70
2018-06-08T01:32:36.933Z,90.60
2018-06-08T01:35:05.981Z,90.50
2018-06-08T01:37:34.518Z,90.50
2018-06-08T01:40:03.093Z,90.50
2018-06-08T01:42:31.651Z,90.20
2018-06-08T01:45:00.240Z,90.00
2018-06-08T01:47:28.822Z,90.00
2018-06-08T01:49:57.345Z,90.00
2018-06-08T01:52:25.935Z,90.30
2018-06-08T01:54:54.469Z,90.20
2018-06-08T01:57:23.024Z,90.40
2018-06-08T01:59:51.571Z,90.10
2018-06-08T02:02:20.155Z,90.60
2018-06-08T02:04:48.739Z,91.00
2018-06-08T02:07:17.270Z,90.70
2018-06-08T02:09:45.817Z,91.20
2018-06-08T02:12:14.370Z,91.30
2018-06-08T02:14:42.930Z,91.30
2018-06-08T02:17:11.480Z,91.60
2018-06-08T02:19:40.054Z,91.80
2018-06-08T02:22:08.626Z,91.90
2018-06-08T02:24:37.214Z,92.00
2018-06-08T02:27:05.753Z,92.10
2018-06-08T02:29:34.293Z,91.90
2018-06-08T02:32:02.926Z,91.90
2018-06-08T02:34:31.526Z,91.90
2018-06-08T02:37:00.074Z,92.00
2018-06-08T02:39:28.640Z,92.00
2018-06-08T02:41:57.174Z,92.30
2018-06-08T02:44:25.718Z,92.30
2018-06-08T02:46:54.294Z,92.30
2018-06-08T02:49:22.870Z,92.40
2018-06-08T02:51:51.453Z,92.40
2018-06-08T02:54:19.983Z,92.60
2018-06-08T02:56:48.555Z,92.70
2018-06-08T02:59:17.082Z,92.80
2018-06-08T03:01:45.630Z,92.90
2018-06-08T03:04:14.203Z,92.90
2018-06-08T03:06:42.767Z,93.10
2018-06-08T03:09:11.292Z,92.90
2018-06-08T03:11:39.856Z,93.00
2018-06-08T03:14:08.401Z,93.10
2018-06-08T03:16:37.004Z,93.20
2018-06-08T03:19:05.575Z,93.20
2018-06-08T03:21:34.130Z,93.30
2018-06-08T03:24:02.692Z,93.40
2018-06-08T03:26:31.278Z,93.50
2018-06-08T03:28:59.811Z,93.60
2018-06-08T03:31:28.410Z,93.70
2018-06-08T03:33:57.094Z,93.70
2018-06-08T03:36:25.638Z,93.70
2018-06-08T03:38:54.218Z,93.70
2018-06-08T03:41:22.755Z,93.70
2018-06-08T03:43:51.322Z,93.70
2018-06-08T03:46:19.866Z,93.70
2018-06-08T03:48:48.433Z,93.70
2018-06-08T03:51:17.743Z,93.70
2018-06-08T03:53:46.302Z,93.60
2018-06-08T03:56:14.866Z,93.70
2018-06-08T03:58:43.434Z,93.60
2018-06-08T04:01:12.021Z,93.70
2018-06-08T04:03:40.630Z,93.60
2018-06-08T04:06:09.223Z,93.60
2018-06-08T04:08:37.836Z,93.60
2018-06-08T04:11:07.233Z,93.50
2018-06-08T04:13:35.793Z,93.60
2018-06-08T04:16:04.400Z,93.50
2018-06-08T04:18:32.977Z,93.50
2018-06-08T04:21:01.524Z,93.50
2018-06-08T04:23:30.058Z,93.60
2018-06-08T04:25:58.590Z,93.50
2018-06-08T04:28:27.150Z,93.50
2018-06-08T04:30:55.680Z,93.50
2018-06-08T04:33:24.238Z,93.50
2018-06-08T04:35:53.450Z,93.40
2018-06-08T04:38:22.061Z,93.40
2018-06-08T04:40:50.628Z,93.30
2018-06-08T04:43:19.166Z,93.30
2018-06-08T04:45:47.739Z,93.30
2018-06-08T04:48:16.351Z,93.40
2018-06-08T04:50:44.907Z,93.20
2018-06-08T04:53:13.485Z,93.20
2018-06-08T04:55:42.038Z,93.30
2018-06-08T04:58:10.607Z,93.20
2018-06-08T05:00:39.163Z,93.30
2018-06-08T05:03:07.696Z,93.20
2018-06-08T05:05:36.299Z,93.20
2018-06-08T05:08:04.956Z,93.10
2018-06-08T05:10:33.520Z,93.10
2018-06-08T05:13:02.120Z,92.80
2018-06-08T05:15:30.667Z,92.90
2018-06-08T05:17:59.207Z,92.90
2018-06-08T05:20:27.831Z,92.80
2018-06-08T05:22:56.378Z,92.70
2018-06-08T05:25:24.962Z,92.90
2018-06-08T05:27:53.538Z,92.90
2018-06-08T05:30:24.093Z,92.80
2018-06-08T05:32:52.674Z,92.90
2018-06-08T05:35:21.318Z,93.10
2018-06-08T05:37:49.842Z,93.30
2018-06-08T05:40:18.433Z,93.00
2018-06-08T05:42:46.977Z,93.20
2018-06-08T05:45:15.659Z,93.10
2018-06-08T05:47:44.227Z,93.60
2018-06-08T05:50:12.760Z,93.80
2018-06-08T05:52:41.345Z,94.00
2018-06-08T05:55:09.941Z,93.40
2018-06-08T05:57:38.517Z,93.30
2018-06-08T06:00:07.129Z,93.50
2018-06-08T06:02:35.691Z,93.80
2018-06-08T06:05:04.299Z,93.70
2018-06-08T06:07:32.879Z,94.10
2018-06-08T06:10:01.448Z,93.80
2018-06-08T06:12:30.059Z,94.00
2018-06-08T06:14:58.607Z,94.30
2018-06-08T06:17:27.251Z,94.30
2018-06-08T06:19:55.789Z,94.40
2018-06-08T06:22:24.358Z,94.40
2018-06-08T06:24:52.946Z,94.40
2018-06-08T06:27:21.529Z,94.40
2018-06-08T06:29:50.084Z,94.80
2018-06-08T06:32:18.684Z,95.00
2018-06-08T06:34:47.258Z,95.10
2018-06-08T06:37:15.849Z,95.20
2018-06-08T06:39:44.390Z,95.10
2018-06-08T06:42:12.935Z,95.20
2018-06-08T06:44:41.497Z,95.10
2018-06-08T06:47:10.131Z,94.90
2018-06-08T06:49:38.730Z,94.80
2018-06-08T06:52:07.298Z,94.80
2018-06-08T06:54:35.854Z,94.60
2018-06-08T06:57:04.452Z,94.50
2018-06-08T06:59:32.987Z,94.40
2018-06-08T07:02:01.542Z,94.60
2018-06-08T07:04:30.129Z,94.60
2018-06-08T07:06:58.716Z,94.70
2018-06-08T07:09:27.271Z,94.30
2018-06-08T07:11:55.798Z,94.00
2018-06-08T07:14:24.353Z,94.10
2018-06-08T07:16:52.864Z,94.10
2018-06-08T07:19:21.464Z,94.00
2018-06-08T07:21:50.043Z,94.10
2018-06-08T07:24:18.623Z,93.00
2018-06-08T07:26:47.199Z,92.90
2018-06-08T07:29:15.748Z,93.70
2018-06-08T07:31:44.496Z,93.20
2018-06-08T07:34:12.990Z,93.20
2018-06-08T07:36:41.550Z,92.60
2018-06-08T07:39:10.378Z,92.70
2018-06-08T07:41:38.925Z,92.80
2018-06-08T07:44:07.488Z,93.20
2018-06-08T07:46:36.051Z,93.00
2018-06-08T07:49:04.716Z,92.00
2018-06-08T07:51:33.272Z,90.00
2018-06-08T07:54:01.814Z,89.40
2018-06-08T07:56:30.420Z,90.70
2018-06-08T07:58:58.966Z,90.90
2018-06-08T08:01:27.520Z,90.20
2018-06-08T08:03:56.098Z,89.80
2018-06-08T08:06:24.643Z,87.00
2018-06-08T08:08:53.231Z,88.50
2018-06-08T08:11:21.835Z,88.50
2018-06-08T08:13:50.381Z,88.10
2018-06-08T08:16:18.963Z,88.00
2018-06-08T08:18:47.529Z,88.40
2018-06-08T08:21:16.136Z,86.40
2018-06-08T08:23:44.697Z,86.60
2018-06-08T08:26:13.231Z,86.80
2018-06-08T08:28:41.793Z,84.70
2018-06-08T08:31:10.374Z,84.40
2018-06-08T08:39:24.095Z,85.60
2018-06-08T08:41:52.673Z,86.60
2018-06-08T08:44:21.310Z,85.70
2018-06-08T08:46:49.910Z,86.10
2018-06-08T08:49:18.594Z,86.20
2018-06-08T08:51:47.279Z,87.70
2018-06-08T08:54:15.836Z,89.40
2018-06-08T08:56:44.451Z,89.10
2018-06-08T08:59:13.061Z,90.10
2018-06-08T09:01:41.696Z,90.70
2018-06-08T09:04:10.306Z,90.70
2018-06-08T09:06:38.903Z,90.70
2018-06-08T09:09:07.765Z,91.20
2018-06-08T09:11:36.350Z,91.70
2018-06-08T09:14:05.072Z,92.40
2018-06-08T09:16:33.763Z,92.80
2018-06-08T09:19:02.462Z,93.10
2018-06-08T09:21:31.084Z,92.80
2018-06-08T09:24:01.490Z,92.80
2018-06-08T09:26:30.166Z,93.00
2018-06-08T09:28:58.729Z,93.00
2018-06-08T09:31:27.775Z,93.20
2018-06-08T09:33:56.377Z,93.20
2018-06-08T09:36:24.988Z,93.60
2018-06-08T09:38:53.570Z,93.90
2018-06-08T09:41:22.262Z,94.20
2018-06-08T09:43:50.924Z,94.40
2018-06-08T09:46:19.517Z,94.70
2018-06-08T09:48:48.107Z,94.60
2018-06-08T09:51:16.728Z,94.70
2018-06-08T09:53:45.383Z,95.10
2018-06-08T09:56:13.979Z,95.00
2018-06-08T09:58:42.542Z,95.30
2018-06-08T10:01:11.154Z,95.50
2018-06-08T10:03:39.725Z,95.60
2018-06-08T10:06:08.301Z,95.60
2018-06-08T10:08:36.907Z,95.90
2018-06-08T10:11:05.498Z,96.20
2018-06-08T10:13:34.923Z,96.70
2018-06-08T10:16:04.349Z,96.40
2018-06-08T10:18:32.950Z,95.80
2018-06-08T10:21:01.524Z,95.90
2018-06-08T10:23:30.156Z,96.10
2018-06-08T10:25:59.494Z,96.10
2018-06-08T10:28:28.034Z,95.80
2018-06-08T10:30:56.567Z,95.90
2018-06-08T10:33:25.119Z,95.80
2018-06-08T10:35:53.707Z,96.10
2018-06-08T10:38:22.250Z,96.20
2018-06-08T10:40:50.818Z,96.00
2018-06-08T10:43:19.347Z,95.80
2018-06-08T10:45:47.881Z,95.80
2018-06-08T10:48:16.463Z,95.70
2018-06-08T10:50:45.074Z,95.60
2018-06-08T10:53:13.612Z,95.70
2018-06-08T10:55:42.130Z,95.70
2018-06-08T10:58:10.706Z,95.70
2018-06-08T11:00:39.235Z,95.80
2018-06-08T11:03:07.751Z,95.60
2018-06-08T11:05:36.470Z,95.60
2018-06-08T11:08:05.059Z,95.40
2018-06-08T11:10:33.579Z,95.40
2018-06-08T11:13:02.099Z,95.30
2018-06-08T11:15:30.664Z,95.10
2018-06-08T11:17:59.226Z,94.80
2018-06-08T11:20:27.789Z,94.80
2018-06-08T11:22:56.427Z,94.60
2018-06-08T11:25:24.967Z,94.40
2018-06-08T11:27:53.532Z,94.30
2018-06-08T11:30:22.051Z,94.20
2018-06-08T11:32:50.603Z,93.80
2018-06-08T11:35:19.118Z,93.70
2018-06-08T11:37:47.750Z,93.80
2018-06-08T11:40:16.302Z,93.80
2018-06-08T11:42:44.904Z,93.60
2018-06-08T11:45:13.467Z,93.40
2018-06-08T11:47:42.116Z,93.30
2018-06-08T11:50:10.708Z,93.60
2018-06-08T11:52:39.271Z,93.50
2018-06-08T11:55:07.829Z,93.50
2018-06-08T11:57:36.385Z,93.40
2018-06-08T12:00:05.307Z,93.50
2018-06-08T12:02:33.872Z,93.40
2018-06-08T12:05:02.403Z,93.20
2018-06-08T12:07:30.975Z,93.20
2018-06-08T12:09:59.514Z,93.60
2018-06-08T12:12:28.099Z,93.40
2018-06-08T12:14:56.653Z,93.60
2018-06-08T12:17:25.274Z,93.80
2018-06-08T12:19:53.778Z,94.20
2018-06-08T12:22:22.305Z,93.50
2018-06-08T12:24:50.858Z,93.40
2018-06-08T12:27:19.410Z,93.50
2018-06-08T12:29:47.934Z,93.10
2018-06-08T12:32:16.489Z,93.00
2018-06-08T12:34:45.024Z,93.20
2018-06-08T12:37:13.616Z,92.70
2018-06-08T12:39:42.194Z,91.50
2018-06-08T12:42:10.778Z,90.90
2018-06-08T12:44:39.327Z,90.40
2018-06-08T12:47:07.894Z,90.40
2018-06-08T12:49:36.553Z,90.60
2018-06-08T12:52:05.173Z,87.30
2018-06-08T12:54:33.803Z,86.80
2018-06-08T12:57:02.367Z,87.60
2018-06-08T12:59:30.939Z,87.00
2018-06-08T13:01:59.527Z,88.70
2018-06-08T13:04:28.072Z,89.30
2018-06-08T13:06:56.629Z,88.70
2018-06-08T13:09:25.200Z,89.00
2018-06-08T13:11:53.763Z,90.40
2018-06-08T13:14:22.352Z,86.60
2018-06-08T13:16:50.938Z,86.20
2018-06-08T13:19:19.489Z,86.30
2018-06-08T13:21:48.218Z,85.30
2018-06-08T13:24:16.742Z,86.40
2018-06-08T13:26:45.328Z,87.20
2018-06-08T13:29:13.885Z,85.40
2018-06-08T13:31:42.502Z,83.40
2018-06-08T13:34:11.058Z,84.50
2018-06-08T13:36:39.671Z,84.70
2018-06-08T13:39:08.330Z,85.40
2018-06-08T13:41:36.975Z,84.90
2018-06-08T13:44:05.694Z,85.60
2018-06-08T13:46:46.227Z,85.90
2018-06-08T13:49:14.829Z,85.70
2018-06-08T13:51:43.462Z,86.30
2018-06-08T13:54:12.029Z,86.90
2018-06-08T13:56:40.626Z,87.10
2018-06-08T13:59:09.194Z,86.90
2018-06-08T14:01:37.818Z,86.10
2018-06-08T14:04:06.386Z,84.50
2018-06-08T14:06:35.161Z,84.30
2018-06-08T14:09:04.689Z,84.30
2018-06-08T14:11:33.269Z,83.80
2018-06-08T14:14:01.815Z,86.00
2018-06-08T14:16:30.407Z,84.20
2018-06-08T14:18:58.951Z,84.70
2018-06-08T14:21:27.633Z,84.70
2018-06-08T14:23:56.189Z,85.00
2018-06-08T14:26:24.760Z,84.40
2018-06-08T14:28:53.323Z,82.20
2018-06-08T14:31:21.996Z,82.60
2018-06-08T14:36:43.266Z,80.30
2018-06-08T14:39:11.882Z,82.60
2018-06-08T14:41:42.892Z,81.00
2018-06-08T14:44:11.554Z,79.70
2018-06-08T14:46:40.314Z,80.50
2018-06-08T14:49:08.913Z,76.60
2018-06-08T14:51:37.497Z,79.00
2018-06-08T14:54:06.087Z,78.30
2018-06-08T14:56:34.742Z,77.40
2018-06-08T14:59:03.471Z,76.80
2018-06-08T15:01:32.100Z,76.30
2018-06-08T15:04:00.683Z,76.50
2018-06-08T15:06:29.278Z,75.80
2018-06-08T15:08:57.939Z,76.90
2018-06-08T15:11:26.573Z,76.00
2018-06-08T15:13:55.135Z,75.80
2018-06-08T15:16:23.836Z,72.40
2018-06-08T15:18:52.481Z,74.20
2018-06-08T15:21:21.149Z,74.20
2018-06-08T15:23:49.800Z,73.00
2018-06-08T15:26:18.421Z,72.50
2018-06-08T15:28:47.054Z,74.50
2018-06-08T15:31:15.666Z,72.40
2018-06-08T15:33:44.247Z,72.30
2018-06-08T15:36:12.859Z,73.40
2018-06-08T15:38:41.441Z,71.00
2018-06-08T15:41:10.041Z,71.10
2018-06-08T15:43:38.706Z,70.80
2018-06-08T15:46:07.318Z,71.70
2018-06-08T15:48:35.929Z,72.20
2018-06-08T15:51:04.519Z,73.20
2018-06-08T15:53:33.163Z,73.50
2018-06-08T15:56:01.762Z,73.10
2018-06-08T15:58:30.370Z,72.60
2018-06-08T16:00:59.159Z,72.10
2018-06-08T16:03:27.695Z,71.00
2018-06-08T16:05:56.270Z,70.10
2018-06-08T16:08:24.885Z,71.60
2018-06-08T16:10:53.510Z,70.40
2018-06-08T16:13:22.167Z,71.20
2018-06-08T16:15:50.765Z,70.20
2018-06-08T16:18:19.359Z,70.70
2018-06-08T16:20:48.021Z,69.30
2018-06-08T16:23:16.608Z,70.40
2018-06-08T16:25:45.200Z,70.00
2018-06-08T16:28:13.855Z,73.50
2018-06-08T16:30:43.010Z,73.50
2018-06-08T16:33:12.220Z,74.30
2018-06-08T16:35:40.757Z,76.90
2018-06-08T16:38:09.370Z,75.60
2018-06-08T16:40:37.942Z,77.20
2018-06-08T16:43:06.583Z,76.20
2018-06-08T16:45:35.159Z,74.90
2018-06-08T16:48:03.800Z,75.20
2018-06-08T16:50:32.507Z,74.70
2018-06-08T16:53:01.049Z,76.40
2018-06-08T16:55:29.740Z,75.70
2018-06-08T16:58:02.219Z,76.00
2018-06-08T17:11:59.894Z,79.00
2018-06-08T17:14:28.532Z,78.70
2018-06-08T17:16:57.138Z,79.30
2018-06-08T17:19:25.764Z,79.10
2018-06-08T17:21:54.458Z,79.70
2018-06-08T17:24:23.065Z,79.80
2018-06-08T17:26:51.667Z,78.90
2018-06-08T17:29:20.337Z,78.50
2018-06-08T17:31:48.968Z,77.10
2018-06-08T17:34:17.687Z,79.20
2018-06-08T17:36:46.322Z,77.10
2018-06-08T17:39:14.966Z,77.60
2018-06-08T17:41:43.605Z,77.00
2018-06-08T17:44:12.220Z,77.10
2018-06-08T17:46:40.924Z,77.00
2018-06-08T17:49:09.571Z,76.80
2018-06-08T17:51:38.383Z,77.30
2018-06-08T17:54:07.017Z,78.70
2018-06-08T17:56:35.687Z,78.60
2018-06-08T17:59:04.349Z,79.80
2018-06-08T18:01:32.961Z,78.30
2018-06-08T18:04:01.600Z,79.50
2018-06-08T18:06:30.220Z,78.70
2018-06-08T18:08:58.903Z,79.10
2018-06-08T18:11:27.525Z,79.30
2018-06-08T18:13:56.158Z,78.90
2018-06-08T18:16:24.814Z,78.90
2018-06-08T18:18:53.454Z,79.10
2018-06-08T18:21:22.069Z,78.90
2018-06-08T18:23:50.702Z,79.10
2018-06-08T18:26:19.362Z,79.60
2018-06-08T18:28:48.018Z,80.60
2018-06-08T18:31:16.592Z,82.20
2018-06-08T18:33:45.207Z,81.70
2018-06-08T18:36:13.857Z,81.90
2018-06-08T18:38:42.536Z,81.90
2018-06-08T18:41:11.169Z,82.60
2018-06-08T18:43:39.807Z,82.00
2018-06-08T18:46:08.449Z,82.90
2018-06-08T18:48:37.086Z,82.80
2018-06-08T18:51:05.770Z,82.30
2018-06-08T18:53:34.416Z,82.50
2018-06-08T18:56:03.085Z,82.30
2018-06-08T18:58:31.718Z,82.80
2018-06-08T19:01:00.395Z,83.30
2018-06-08T19:03:29.227Z,83.50
2018-06-08T19:05:57.944Z,83.50
2018-06-08T19:08:26.592Z,83.30
2018-06-08T19:10:55.234Z,83.60
2018-06-08T19:13:23.966Z,83.70
2018-06-08T19:15:52.650Z,83.60
2018-06-08T19:18:21.277Z,84.50
2018-06-08T19:20:49.887Z,84.50
2018-06-08T19:23:18.911Z,84.50
2018-06-08T19:25:47.596Z,84.70
2018-06-08T19:28:16.205Z,84.50
2018-06-08T19:30:44.917Z,85.00
2018-06-08T19:33:13.566Z,85.10
2018-06-08T19:35:42.174Z,85.40
2018-06-08T19:38:10.814Z,85.50
2018-06-08T19:40:39.440Z,85.90
2018-06-08T19:43:08.262Z,85.80
2018-06-08T19:45:37.193Z,86.20
2018-06-08T19:48:05.808Z,86.70
2018-06-08T19:50:34.562Z,86.90
2018-06-08T19:53:03.161Z,87.50
2018-06-08T19:55:31.802Z,87.70
2018-06-08T19:58:00.413Z,87.90
2018-06-08T20:00:28.993Z,88.20
2018-06-08T20:02:57.635Z,88.40
2018-06-08T20:05:26.245Z,88.60
2018-06-08T20:07:54.874Z,88.80
2018-06-08T20:10:23.480Z,88.80
2018-06-08T20:12:52.106Z,89.30
2018-06-08T20:15:20.793Z,89.90
2018-06-08T20:17:49.399Z,89.70
2018-06-08T20:20:18.012Z,89.80
2018-06-08T20:22:46.857Z,90.10
2018-06-08T20:25:15.466Z,90.10
2018-06-08T20:27:44.114Z,90.10
2018-06-08T20:30:12.711Z,90.10
2018-06-08T20:32:41.330Z,90.30
2018-06-08T20:35:09.930Z,90.20
2018-06-08T20:37:38.559Z,90.20
2018-06-08T20:40:07.192Z,90.20
2018-06-08T20:42:35.785Z,90.30
2018-06-08T20:45:04.545Z,90.20
2018-06-08T20:47:33.171Z,90.10
2018-06-08T20:50:01.771Z,90.30
2018-06-08T20:52:30.512Z,90.30
2018-06-08T20:54:59.101Z,90.30
2018-06-08T20:57:28.761Z,90.50
2018-06-08T20:59:57.352Z,90.60
2018-06-08T21:02:25.983Z,90.50
2018-06-08T21:04:54.582Z,90.50
2018-06-08T21:07:23.211Z,90.70
2018-06-08T21:09:51.863Z,90.80
2018-06-08T21:12:20.472Z,90.90
2018-06-08T21:14:49.134Z,91.00
2018-06-08T21:17:17.779Z,91.10
2018-06-08T21:19:46.431Z,91.10
2018-06-08T21:22:15.118Z,91.20
2018-06-08T21:24:43.720Z,91.10
2018-06-08T21:27:12.365Z,91.10
2018-06-08T21:29:41.006Z,91.30
2018-06-08T21:32:09.644Z,91.40
2018-06-08T21:34:38.281Z,91.50
2018-06-08T21:37:06.904Z,91.50
2018-06-08T21:39:35.545Z,91.50
2018-06-08T21:42:04.257Z,91.60
2018-06-08T21:44:32.889Z,91.60
2018-06-08T21:47:01.547Z,91.70
2018-06-08T21:49:30.186Z,91.70
2018-06-08T21:51:58.936Z,91.80
2018-06-08T21:54:27.609Z,91.70
2018-06-08T21:56:56.268Z,92.10
2018-06-08T21:59:24.905Z,92.10
2018-06-08T22:01:53.611Z,92.00
2018-06-08T22:04:22.322Z,91.90
2018-06-08T22:06:50.949Z,92.00
2018-06-08T22:09:19.584Z,92.20
2018-06-08T22:11:48.198Z,92.20
2018-06-08T22:14:16.837Z,92.10
2018-06-08T22:16:45.524Z,92.10
2018-06-08T22:19:14.124Z,92.00
2018-06-08T22:21:42.816Z,92.10
2018-06-08T22:24:11.454Z,92.20
2018-06-08T22:26:40.065Z,92.30
2018-06-08T22:29:08.677Z,92.30
2018-06-08T22:31:37.282Z,92.40
2018-06-08T22:34:06.002Z,92.40
2018-06-08T22:36:34.639Z,92.40
2018-06-08T22:39:03.369Z,92.50
2018-06-08T22:41:31.980Z,92.60
2018-06-08T22:44:00.635Z,92.70
2018-06-08T22:46:29.264Z,92.80
2018-06-08T22:48:57.941Z,92.80
2018-06-08T22:51:26.776Z,92.80
2018-06-08T22:53:55.384Z,92.90
2018-06-08T22:56:24.001Z,92.70
2018-06-08T22:58:52.632Z,92.70
2018-06-08T23:01:21.287Z,92.70
2018-06-08T23:03:49.909Z,92.50
2018-06-08T23:06:18.500Z,92.60
2018-06-08T23:08:47.134Z,92.40
2018-06-08T23:11:15.858Z,92.30
2018-06-08T23:13:44.469Z,92.30
2018-06-08T23:16:13.096Z,92.20
2018-06-08T23:18:41.721Z,92.20
2018-06-08T23:21:10.292Z,92.30
2018-06-08T23:23:38.912Z,92.30
2018-06-08T23:26:07.544Z,92.30
2018-06-08T23:28:36.162Z,92.50
2018-06-08T23:31:04.885Z,92.50
2018-06-08T23:33:33.492Z,92.80
2018-06-08T23:36:02.137Z,92.50
2018-06-08T23:38:30.766Z,92.40
2018-06-08T23:40:59.389Z,92.20
2018-06-08T23:43:27.995Z,92.10
2018-06-08T23:45:56.606Z,91.90
2018-06-08T23:48:25.465Z,91.80
2018-06-08T23:50:54.082Z,91.60
2018-06-08T23:53:22.714Z,91.50
2018-06-08T23:55:51.293Z,91.40
2018-06-08T23:58:19.870Z,91.30
